sensor_id;sensor_type;location;lat;lon;timestamp;P1;durP1;ratioP1;P2;durP2;ratioP2
58978;SDS011;44763;50.464;30.612;2023-09-19T00:00:07;8.80;;;7.90;;
58978;SDS011;44763;50.464;30.612;2023-09-19T00:02:09;10.50;;;9.50;;
58978;SDS011;44763;50.464;30.612;2023-09-19T00:04:13;8.80;;;8.00;;
58978;SDS011;44763;50.464;30.612;2023-09-19T00:06:16;10.40;;;9.30;;
58978;SDS011;44763;50.464;30.612;2023-09-19T00:08:18;11.70;;;9.20;;
58978;SDS011;44763;50.464;30.612;2023-09-19T00:10:25;9.60;;;8.60;;
58978;SDS011;44763;50.464;30.612;2023-09-19T00:12:28;9.30;;;8.50;;
58978;SDS011;44763;50.464;30.612;2023-09-19T00:14:30;10.40;;;8.50;;
58978;SDS011;44763;50.464;30.612;2023-09-19T00:16:36;13.90;;;9.00;;
58978;SDS011;44763;50.464;30.612;2023-09-19T00:18:38;9.80;;;8.80;;
58978;SDS011;44763;50.464;30.612;2023-09-19T00:20:40;10.20;;;8.80;;
58978;SDS011;44763;50.464;30.612;2023-09-19T00:22:43;14.70;;;9.70;;
58978;SDS011;44763;50.464;30.612;2023-09-19T00:24:46;10.20;;;9.20;;
58978;SDS011;44763;50.464;30.612;2023-09-19T00:26:48;10.60;;;8.60;;
58978;SDS011;44763;50.464;30.612;2023-09-19T00:28:53;10.10;;;9.10;;
58978;SDS011;44763;50.464;30.612;2023-09-19T00:30:55;11.40;;;9.70;;
58978;SDS011;44763;50.464;30.612;2023-09-19T00:32:58;9.50;;;8.60;;
58978;SDS011;44763;50.464;30.612;2023-09-19T00:35:02;10.50;;;9.40;;
58978;SDS011;44763;50.464;30.612;2023-09-19T00:37:04;10.20;;;8.80;;
58978;SDS011;44763;50.464;30.612;2023-09-19T00:39:06;13.00;;;8.40;;
58978;SDS011;44763;50.464;30.612;2023-09-19T00:41:10;10.90;;;9.80;;
58978;SDS011;44763;50.464;30.612;2023-09-19T00:43:14;12.00;;;8.70;;
58978;SDS011;44763;50.464;30.612;2023-09-19T00:45:17;11.20;;;9.10;;
58978;SDS011;44763;50.464;30.612;2023-09-19T00:47:20;11.80;;;9.30;;
58978;SDS011;44763;50.464;30.612;2023-09-19T00:49:22;10.60;;;9.10;;
58978;SDS011;44763;50.464;30.612;2023-09-19T00:51:26;15.60;;;9.70;;
58978;SDS011;44763;50.464;30.612;2023-09-19T00:53:29;11.10;;;9.20;;
58978;SDS011;44763;50.464;30.612;2023-09-19T00:55:32;9.60;;;8.70;;
58978;SDS011;44763;50.464;30.612;2023-09-19T00:57:36;10.20;;;9.30;;
58978;SDS011;44763;50.464;30.612;2023-09-19T00:59:43;10.60;;;9.50;;
58978;SDS011;44763;50.464;30.612;2023-09-19T01:01:45;9.60;;;8.40;;
58978;SDS011;44763;50.464;30.612;2023-09-19T01:03:47;9.70;;;8.70;;
58978;SDS011;44763;50.464;30.612;2023-09-19T01:05:50;10.00;;;9.10;;
58978;SDS011;44763;50.464;30.612;2023-09-19T01:07:52;10.00;;;8.90;;
58978;SDS011;44763;50.464;30.612;2023-09-19T01:09:56;9.60;;;8.70;;
58978;SDS011;44763;50.464;30.612;2023-09-19T01:12:01;9.60;;;8.40;;
58978;SDS011;44763;50.464;30.612;2023-09-19T01:16:36;11.00;;;8.30;;
58978;SDS011;44763;50.464;30.612;2023-09-19T01:22:00;9.20;;;8.30;;
58978;SDS011;44763;50.464;30.612;2023-09-19T01:24:25;12.20;;;9.60;;
58978;SDS011;44763;50.464;30.612;2023-09-19T01:31:22;9.30;;;8.30;;
58978;SDS011;44763;50.464;30.612;2023-09-19T01:33:27;9.00;;;8.10;;
58978;SDS011;44763;50.464;30.612;2023-09-19T01:35:29;9.40;;;8.50;;
58978;SDS011;44763;50.464;30.612;2023-09-19T01:37:30;9.20;;;8.40;;
58978;SDS011;44763;50.464;30.612;2023-09-19T01:39:33;9.50;;;8.50;;
58978;SDS011;44763;50.464;30.612;2023-09-19T01:41:39;9.30;;;8.40;;
58978;SDS011;44763;50.464;30.612;2023-09-19T01:43:48;9.00;;;8.20;;
58978;SDS011;44763;50.464;30.612;2023-09-19T01:48:14;11.00;;;9.40;;
58978;SDS011;44763;50.464;30.612;2023-09-19T01:50:32;10.00;;;9.00;;
58978;SDS011;44763;50.464;30.612;2023-09-19T01:52:54;15.20;;;8.90;;
58978;SDS011;44763;50.464;30.612;2023-09-19T01:55:06;9.40;;;8.50;;
58978;SDS011;44763;50.464;30.612;2023-09-19T01:57:15;11.40;;;8.80;;
58978;SDS011;44763;50.464;30.612;2023-09-19T01:59:28;9.90;;;8.50;;
58978;SDS011;44763;50.464;30.612;2023-09-19T02:01:37;9.20;;;8.30;;
58978;SDS011;44763;50.464;30.612;2023-09-19T02:03:39;10.10;;;9.20;;
58978;SDS011;44763;50.464;30.612;2023-09-19T02:05:47;8.90;;;8.10;;
58978;SDS011;44763;50.464;30.612;2023-09-19T02:07:51;11.20;;;9.40;;
58978;SDS011;44763;50.464;30.612;2023-09-19T02:09:55;9.40;;;8.60;;
58978;SDS011;44763;50.464;30.612;2023-09-19T02:11:56;12.20;;;9.70;;
58978;SDS011;44763;50.464;30.612;2023-09-19T02:13:58;14.30;;;9.10;;
58978;SDS011;44763;50.464;30.612;2023-09-19T02:16:01;11.10;;;10.00;;
58978;SDS011;44763;50.464;30.612;2023-09-19T02:18:04;11.30;;;9.10;;
58978;SDS011;44763;50.464;30.612;2023-09-19T02:20:07;12.10;;;8.90;;
58978;SDS011;44763;50.464;30.612;2023-09-19T02:22:11;10.40;;;9.10;;
58978;SDS011;44763;50.464;30.612;2023-09-19T02:24:13;10.70;;;9.20;;
58978;SDS011;44763;50.464;30.612;2023-09-19T02:26:16;12.50;;;8.60;;
58978;SDS011;44763;50.464;30.612;2023-09-19T02:28:21;10.20;;;8.80;;
58978;SDS011;44763;50.464;30.612;2023-09-19T02:30:25;10.50;;;8.60;;
58978;SDS011;44763;50.464;30.612;2023-09-19T02:32:27;10.00;;;9.10;;
58978;SDS011;44763;50.464;30.612;2023-09-19T02:34:30;10.40;;;9.30;;
58978;SDS011;44763;50.464;30.612;2023-09-19T02:36:32;11.90;;;10.10;;
58978;SDS011;44763;50.464;30.612;2023-09-19T02:38:34;9.70;;;8.90;;
58978;SDS011;44763;50.464;30.612;2023-09-19T02:40:36;9.60;;;8.60;;
58978;SDS011;44763;50.464;30.612;2023-09-19T02:42:38;10.00;;;9.00;;
58978;SDS011;44763;50.464;30.612;2023-09-19T02:44:40;10.60;;;9.50;;
58978;SDS011;44763;50.464;30.612;2023-09-19T02:46:42;9.20;;;8.30;;
58978;SDS011;44763;50.464;30.612;2023-09-19T02:48:44;10.30;;;9.30;;
58978;SDS011;44763;50.464;30.612;2023-09-19T02:50:46;9.50;;;8.60;;
58978;SDS011;44763;50.464;30.612;2023-09-19T02:52:51;10.40;;;9.40;;
58978;SDS011;44763;50.464;30.612;2023-09-19T02:54:53;12.20;;;9.90;;
58978;SDS011;44763;50.464;30.612;2023-09-19T02:56:55;11.70;;;9.00;;
58978;SDS011;44763;50.464;30.612;2023-09-19T02:58:57;10.80;;;9.80;;
58978;SDS011;44763;50.464;30.612;2023-09-19T03:00:59;11.30;;;10.00;;
58978;SDS011;44763;50.464;30.612;2023-09-19T03:03:01;13.00;;;10.00;;
58978;SDS011;44763;50.464;30.612;2023-09-19T03:05:05;10.00;;;8.50;;
58978;SDS011;44763;50.464;30.612;2023-09-19T03:07:09;10.10;;;9.20;;
58978;SDS011;44763;50.464;30.612;2023-09-19T03:09:13;9.40;;;8.60;;
58978;SDS011;44763;50.464;30.612;2023-09-19T03:11:15;10.70;;;9.10;;
58978;SDS011;44763;50.464;30.612;2023-09-19T03:13:24;11.00;;;9.50;;
58978;SDS011;44763;50.464;30.612;2023-09-19T03:15:27;13.60;;;9.50;;
58978;SDS011;44763;50.464;30.612;2023-09-19T03:17:29;10.90;;;9.80;;
58978;SDS011;44763;50.464;30.612;2023-09-19T03:19:31;10.60;;;9.00;;
58978;SDS011;44763;50.464;30.612;2023-09-19T03:21:35;9.80;;;8.90;;
58978;SDS011;44763;50.464;30.612;2023-09-19T03:23:37;12.00;;;10.10;;
58978;SDS011;44763;50.464;30.612;2023-09-19T03:25:40;10.50;;;9.00;;
58978;SDS011;44763;50.464;30.612;2023-09-19T03:27:42;10.80;;;9.70;;
58978;SDS011;44763;50.464;30.612;2023-09-19T03:29:44;10.40;;;9.40;;
58978;SDS011;44763;50.464;30.612;2023-09-19T03:33:51;11.50;;;8.90;;
58978;SDS011;44763;50.464;30.612;2023-09-19T03:35:53;9.90;;;9.10;;
58978;SDS011;44763;50.464;30.612;2023-09-19T03:37:57;9.80;;;8.50;;
58978;SDS011;44763;50.464;30.612;2023-09-19T03:39:59;12.40;;;9.80;;
58978;SDS011;44763;50.464;30.612;2023-09-19T03:42:06;10.30;;;9.30;;
58978;SDS011;44763;50.464;30.612;2023-09-19T03:44:10;10.20;;;9.20;;
58978;SDS011;44763;50.464;30.612;2023-09-19T03:46:12;11.60;;;9.40;;
58978;SDS011;44763;50.464;30.612;2023-09-19T03:48:17;10.10;;;9.10;;
58978;SDS011;44763;50.464;30.612;2023-09-19T03:50:19;15.10;;;10.00;;
58978;SDS011;44763;50.464;30.612;2023-09-19T03:52:21;11.30;;;10.30;;
58978;SDS011;44763;50.464;30.612;2023-09-19T03:54:22;13.00;;;9.60;;
58978;SDS011;44763;50.464;30.612;2023-09-19T03:56:24;10.30;;;9.10;;
58978;SDS011;44763;50.464;30.612;2023-09-19T03:58:26;12.20;;;9.90;;
58978;SDS011;44763;50.464;30.612;2023-09-19T04:00:28;10.60;;;9.20;;
58978;SDS011;44763;50.464;30.612;2023-09-19T04:02:32;10.70;;;9.40;;
58978;SDS011;44763;50.464;30.612;2023-09-19T04:04:34;10.30;;;9.30;;
58978;SDS011;44763;50.464;30.612;2023-09-19T04:06:37;10.90;;;9.90;;
58978;SDS011;44763;50.464;30.612;2023-09-19T04:08:38;11.40;;;9.80;;
58978;SDS011;44763;50.464;30.612;2023-09-19T04:10:41;10.70;;;9.70;;
58978;SDS011;44763;50.464;30.612;2023-09-19T04:12:51;10.70;;;9.70;;
58978;SDS011;44763;50.464;30.612;2023-09-19T04:14:54;12.90;;;8.30;;
58978;SDS011;44763;50.464;30.612;2023-09-19T04:16:56;10.40;;;8.90;;
58978;SDS011;44763;50.464;30.612;2023-09-19T04:18:59;10.20;;;9.30;;
58978;SDS011;44763;50.464;30.612;2023-09-19T04:21:00;12.20;;;9.40;;
58978;SDS011;44763;50.464;30.612;2023-09-19T04:23:05;9.20;;;8.40;;
58978;SDS011;44763;50.464;30.612;2023-09-19T04:25:07;10.90;;;8.20;;
58978;SDS011;44763;50.464;30.612;2023-09-19T04:27:09;13.70;;;9.40;;
58978;SDS011;44763;50.464;30.612;2023-09-19T04:29:11;13.20;;;9.10;;
58978;SDS011;44763;50.464;30.612;2023-09-19T04:31:15;11.30;;;8.20;;
58978;SDS011;44763;50.464;30.612;2023-09-19T04:33:18;9.30;;;8.30;;
58978;SDS011;44763;50.464;30.612;2023-09-19T04:35:20;10.70;;;7.80;;
58978;SDS011;44763;50.464;30.612;2023-09-19T04:37:24;8.60;;;7.80;;
58978;SDS011;44763;50.464;30.612;2023-09-19T04:39:26;8.30;;;7.60;;
58978;SDS011;44763;50.464;30.612;2023-09-19T04:41:29;8.90;;;8.00;;
58978;SDS011;44763;50.464;30.612;2023-09-19T04:43:31;15.20;;;8.10;;
58978;SDS011;44763;50.464;30.612;2023-09-19T04:45:33;14.00;;;7.90;;
58978;SDS011;44763;50.464;30.612;2023-09-19T04:47:36;9.30;;;8.10;;
58978;SDS011;44763;50.464;30.612;2023-09-19T04:49:40;8.40;;;7.60;;
58978;SDS011;44763;50.464;30.612;2023-09-19T04:51:42;7.60;;;7.00;;
58978;SDS011;44763;50.464;30.612;2023-09-19T04:53:44;9.50;;;7.70;;
58978;SDS011;44763;50.464;30.612;2023-09-19T04:55:49;11.30;;;7.50;;
58978;SDS011;44763;50.464;30.612;2023-09-19T04:57:53;7.40;;;6.70;;
58978;SDS011;44763;50.464;30.612;2023-09-19T04:59:55;8.20;;;7.50;;
58978;SDS011;44763;50.464;30.612;2023-09-19T05:01:56;8.00;;;7.00;;
58978;SDS011;44763;50.464;30.612;2023-09-19T05:03:58;7.70;;;7.00;;
58978;SDS011;44763;50.464;30.612;2023-09-19T05:06:00;7.40;;;6.70;;
58978;SDS011;44763;50.464;30.612;2023-09-19T05:08:02;11.90;;;8.00;;
58978;SDS011;44763;50.464;30.612;2023-09-19T05:10:06;7.60;;;6.90;;
58978;SDS011;44763;50.464;30.612;2023-09-19T05:12:09;9.10;;;7.10;;
58978;SDS011;44763;50.464;30.612;2023-09-19T05:14:12;6.90;;;6.30;;
58978;SDS011;44763;50.464;30.612;2023-09-19T05:16:14;7.80;;;6.80;;
58978;SDS011;44763;50.464;30.612;2023-09-19T05:18:15;11.00;;;6.50;;
58978;SDS011;44763;50.464;30.612;2023-09-19T05:20:17;7.20;;;6.20;;
58978;SDS011;44763;50.464;30.612;2023-09-19T05:22:32;8.20;;;7.00;;
58978;SDS011;44763;50.464;30.612;2023-09-19T05:24:34;11.00;;;6.40;;
58978;SDS011;44763;50.464;30.612;2023-09-19T05:26:37;10.50;;;6.30;;
58978;SDS011;44763;50.464;30.612;2023-09-19T05:28:39;10.90;;;6.50;;
58978;SDS011;44763;50.464;30.612;2023-09-19T05:30:41;6.30;;;5.80;;
58978;SDS011;44763;50.464;30.612;2023-09-19T05:32:48;8.30;;;6.20;;
58978;SDS011;44763;50.464;30.612;2023-09-19T05:34:50;7.10;;;6.40;;
58978;SDS011;44763;50.464;30.612;2023-09-19T05:36:55;10.30;;;6.70;;
58978;SDS011;44763;50.464;30.612;2023-09-19T05:38:56;10.70;;;6.60;;
58978;SDS011;44763;50.464;30.612;2023-09-19T05:40:59;7.10;;;6.40;;
58978;SDS011;44763;50.464;30.612;2023-09-19T05:43:01;6.40;;;5.80;;
58978;SDS011;44763;50.464;30.612;2023-09-19T05:45:05;6.30;;;5.70;;
58978;SDS011;44763;50.464;30.612;2023-09-19T05:47:08;6.90;;;6.20;;
58978;SDS011;44763;50.464;30.612;2023-09-19T05:49:10;6.60;;;6.00;;
58978;SDS011;44763;50.464;30.612;2023-09-19T05:51:12;6.80;;;6.30;;
58978;SDS011;44763;50.464;30.612;2023-09-19T05:53:14;6.20;;;5.60;;
58978;SDS011;44763;50.464;30.612;2023-09-19T05:55:16;8.20;;;6.20;;
58978;SDS011;44763;50.464;30.612;2023-09-19T05:57:18;8.70;;;6.90;;
58978;SDS011;44763;50.464;30.612;2023-09-19T05:59:20;6.20;;;5.70;;
58978;SDS011;44763;50.464;30.612;2023-09-19T06:01:22;8.60;;;6.80;;
58978;SDS011;44763;50.464;30.612;2023-09-19T06:03:24;6.50;;;5.90;;
58978;SDS011;44763;50.464;30.612;2023-09-19T06:05:26;6.90;;;6.20;;
58978;SDS011;44763;50.464;30.612;2023-09-19T06:07:29;7.40;;;6.70;;
58978;SDS011;44763;50.464;30.612;2023-09-19T06:09:38;11.30;;;7.00;;
58978;SDS011;44763;50.464;30.612;2023-09-19T06:11:42;7.00;;;5.60;;
58978;SDS011;44763;50.464;30.612;2023-09-19T06:13:45;6.30;;;5.60;;
58978;SDS011;44763;50.464;30.612;2023-09-19T06:15:48;6.30;;;5.80;;
58978;SDS011;44763;50.464;30.612;2023-09-19T06:17:51;6.80;;;6.20;;
58978;SDS011;44763;50.464;30.612;2023-09-19T06:19:58;6.50;;;6.00;;
58978;SDS011;44763;50.464;30.612;2023-09-19T06:22:01;7.10;;;6.40;;
58978;SDS011;44763;50.464;30.612;2023-09-19T06:24:03;6.80;;;6.20;;
58978;SDS011;44763;50.464;30.612;2023-09-19T06:26:04;8.50;;;6.60;;
58978;SDS011;44763;50.464;30.612;2023-09-19T06:28:08;9.30;;;7.20;;
58978;SDS011;44763;50.464;30.612;2023-09-19T06:30:14;6.50;;;6.00;;
58978;SDS011;44763;50.464;30.612;2023-09-19T06:32:16;6.50;;;6.10;;
58978;SDS011;44763;50.464;30.612;2023-09-19T06:34:18;6.90;;;6.40;;
58978;SDS011;44763;50.464;30.612;2023-09-19T06:36:20;7.90;;;6.40;;
58978;SDS011;44763;50.464;30.612;2023-09-19T06:38:21;6.80;;;6.10;;
58978;SDS011;44763;50.464;30.612;2023-09-19T06:40:23;7.40;;;6.70;;
58978;SDS011;44763;50.464;30.612;2023-09-19T06:42:26;6.70;;;6.20;;
58978;SDS011;44763;50.464;30.612;2023-09-19T06:44:29;14.70;;;7.10;;
58978;SDS011;44763;50.464;30.612;2023-09-19T06:46:33;10.20;;;7.00;;
58978;SDS011;44763;50.464;30.612;2023-09-19T06:48:36;7.80;;;7.00;;
58978;SDS011;44763;50.464;30.612;2023-09-19T06:50:38;7.60;;;7.00;;
58978;SDS011;44763;50.464;30.612;2023-09-19T06:54:45;7.90;;;6.60;;
58978;SDS011;44763;50.464;30.612;2023-09-19T06:56:46;9.10;;;6.70;;
58978;SDS011;44763;50.464;30.612;2023-09-19T06:58:48;7.00;;;6.30;;
58978;SDS011;44763;50.464;30.612;2023-09-19T07:00:50;6.80;;;6.20;;
58978;SDS011;44763;50.464;30.612;2023-09-19T07:02:58;6.70;;;6.10;;
58978;SDS011;44763;50.464;30.612;2023-09-19T07:05:06;7.10;;;6.30;;
58978;SDS011;44763;50.464;30.612;2023-09-19T07:07:08;6.50;;;5.50;;
58978;SDS011;44763;50.464;30.612;2023-09-19T07:09:11;6.00;;;5.60;;
58978;SDS011;44763;50.464;30.612;2023-09-19T07:11:14;5.90;;;5.30;;
58978;SDS011;44763;50.464;30.612;2023-09-19T07:13:17;7.70;;;6.40;;
58978;SDS011;44763;50.464;30.612;2023-09-19T07:15:19;9.00;;;6.60;;
58978;SDS011;44763;50.464;30.612;2023-09-19T07:17:22;6.20;;;5.70;;
58978;SDS011;44763;50.464;30.612;2023-09-19T07:19:26;6.50;;;5.60;;
58978;SDS011;44763;50.464;30.612;2023-09-19T07:21:31;5.30;;;4.90;;
58978;SDS011;44763;50.464;30.612;2023-09-19T07:23:34;7.00;;;6.30;;
58978;SDS011;44763;50.464;30.612;2023-09-19T07:25:36;6.20;;;5.00;;
58978;SDS011;44763;50.464;30.612;2023-09-19T07:27:38;8.50;;;6.10;;
58978;SDS011;44763;50.464;30.612;2023-09-19T07:29:40;5.40;;;5.00;;
58978;SDS011;44763;50.464;30.612;2023-09-19T07:31:41;6.70;;;6.10;;
58978;SDS011;44763;50.464;30.612;2023-09-19T07:33:44;7.60;;;5.30;;
58978;SDS011;44763;50.464;30.612;2023-09-19T07:35:46;6.00;;;5.00;;
58978;SDS011;44763;50.464;30.612;2023-09-19T07:37:49;5.90;;;5.40;;
58978;SDS011;44763;50.464;30.612;2023-09-19T07:39:52;6.20;;;5.60;;
58978;SDS011;44763;50.464;30.612;2023-09-19T07:41:55;6.90;;;5.30;;
58978;SDS011;44763;50.464;30.612;2023-09-19T07:43:56;6.20;;;5.50;;
58978;SDS011;44763;50.464;30.612;2023-09-19T07:46:02;5.70;;;5.20;;
58978;SDS011;44763;50.464;30.612;2023-09-19T07:48:05;6.30;;;5.80;;
58978;SDS011;44763;50.464;30.612;2023-09-19T07:50:08;10.60;;;5.10;;
58978;SDS011;44763;50.464;30.612;2023-09-19T07:52:11;6.10;;;5.20;;
58978;SDS011;44763;50.464;30.612;2023-09-19T07:54:15;5.20;;;4.70;;
58978;SDS011;44763;50.464;30.612;2023-09-19T07:56:17;6.30;;;5.70;;
58978;SDS011;44763;50.464;30.612;2023-09-19T08:00:24;6.30;;;5.80;;
58978;SDS011;44763;50.464;30.612;2023-09-19T08:02:26;6.00;;;4.90;;
58978;SDS011;44763;50.464;30.612;2023-09-19T08:04:30;5.70;;;5.10;;
58978;SDS011;44763;50.464;30.612;2023-09-19T08:06:35;8.90;;;5.50;;
58978;SDS011;44763;50.464;30.612;2023-09-19T08:08:39;6.10;;;5.50;;
58978;SDS011;44763;50.464;30.612;2023-09-19T08:10:41;5.20;;;4.80;;
58978;SDS011;44763;50.464;30.612;2023-09-19T08:12:48;8.00;;;5.30;;
58978;SDS011;44763;50.464;30.612;2023-09-19T08:14:50;6.00;;;4.80;;
58978;SDS011;44763;50.464;30.612;2023-09-19T08:16:55;5.90;;;4.70;;
58978;SDS011;44763;50.464;30.612;2023-09-19T08:18:58;4.40;;;4.00;;
58978;SDS011;44763;50.464;30.612;2023-09-19T08:21:01;5.00;;;4.60;;
58978;SDS011;44763;50.464;30.612;2023-09-19T08:23:04;7.00;;;4.50;;
58978;SDS011;44763;50.464;30.612;2023-09-19T08:25:07;8.50;;;4.30;;
58978;SDS011;44763;50.464;30.612;2023-09-19T08:27:09;6.20;;;4.10;;
58978;SDS011;44763;50.464;30.612;2023-09-19T08:29:12;5.70;;;4.00;;
58978;SDS011;44763;50.464;30.612;2023-09-19T08:31:14;3.70;;;3.50;;
58978;SDS011;44763;50.464;30.612;2023-09-19T08:33:16;4.50;;;4.10;;
58978;SDS011;44763;50.464;30.612;2023-09-19T08:35:17;7.40;;;3.40;;
58978;SDS011;44763;50.464;30.612;2023-09-19T08:37:21;4.50;;;3.30;;
58978;SDS011;44763;50.464;30.612;2023-09-19T08:39:25;3.10;;;2.80;;
58978;SDS011;44763;50.464;30.612;2023-09-19T08:41:27;3.30;;;3.00;;
58978;SDS011;44763;50.464;30.612;2023-09-19T08:43:29;3.70;;;2.60;;
58978;SDS011;44763;50.464;30.612;2023-09-19T08:45:31;2.80;;;2.60;;
58978;SDS011;44763;50.464;30.612;2023-09-19T08:47:36;5.00;;;2.30;;
58978;SDS011;44763;50.464;30.612;2023-09-19T08:49:51;6.10;;;2.30;;
58978;SDS011;44763;50.464;30.612;2023-09-19T08:52:05;6.30;;;2.20;;
58978;SDS011;44763;50.464;30.612;2023-09-19T08:54:37;4.70;;;1.80;;
58978;SDS011;44763;50.464;30.612;2023-09-19T08:56:41;2.30;;;1.50;;
58978;SDS011;44763;50.464;30.612;2023-09-19T08:58:50;3.20;;;2.70;;
58978;SDS011;44763;50.464;30.612;2023-09-19T09:00:56;2.30;;;1.80;;
58978;SDS011;44763;50.464;30.612;2023-09-19T09:02:59;1.40;;;1.30;;
58978;SDS011;44763;50.464;30.612;2023-09-19T09:05:04;2.70;;;1.50;;
58978;SDS011;44763;50.464;30.612;2023-09-19T09:07:10;7.00;;;1.80;;
58978;SDS011;44763;50.464;30.612;2023-09-19T09:09:14;3.20;;;1.40;;
58978;SDS011;44763;50.464;30.612;2023-09-19T09:11:17;4.00;;;1.90;;
58978;SDS011;44763;50.464;30.612;2023-09-19T09:13:20;1.70;;;1.40;;
58978;SDS011;44763;50.464;30.612;2023-09-19T09:15:24;4.10;;;1.80;;
58978;SDS011;44763;50.464;30.612;2023-09-19T09:17:26;2.00;;;1.80;;
58978;SDS011;44763;50.464;30.612;2023-09-19T09:19:28;3.60;;;2.10;;
58978;SDS011;44763;50.464;30.612;2023-09-19T09:21:32;4.80;;;2.50;;
58978;SDS011;44763;50.464;30.612;2023-09-19T09:23:38;46.70;;;3.10;;
58978;SDS011;44763;50.464;30.612;2023-09-19T09:25:50;3.50;;;2.10;;
58978;SDS011;44763;50.464;30.612;2023-09-19T09:28:01;8.90;;;2.60;;
58978;SDS011;44763;50.464;30.612;2023-09-19T09:30:04;2.60;;;1.60;;
58978;SDS011;44763;50.464;30.612;2023-09-19T09:32:27;2.80;;;1.70;;
58978;SDS011;44763;50.464;30.612;2023-09-19T09:34:35;3.20;;;1.40;;
58978;SDS011;44763;50.464;30.612;2023-09-19T09:36:38;2.60;;;1.70;;
58978;SDS011;44763;50.464;30.612;2023-09-19T09:38:43;1.90;;;1.80;;
58978;SDS011;44763;50.464;30.612;2023-09-19T09:40:50;4.30;;;1.80;;
58978;SDS011;44763;50.464;30.612;2023-09-19T09:42:55;2.10;;;2.00;;
58978;SDS011;44763;50.464;30.612;2023-09-19T09:45:19;3.80;;;2.00;;
58978;SDS011;44763;50.464;30.612;2023-09-19T09:47:41;1.90;;;1.40;;
58978;SDS011;44763;50.464;30.612;2023-09-19T09:49:58;2.00;;;1.60;;
58978;SDS011;44763;50.464;30.612;2023-09-19T09:52:09;4.10;;;1.60;;
58978;SDS011;44763;50.464;30.612;2023-09-19T09:54:20;5.10;;;1.80;;
58978;SDS011;44763;50.464;30.612;2023-09-19T09:56:22;6.50;;;1.90;;
58978;SDS011;44763;50.464;30.612;2023-09-19T09:58:24;3.40;;;1.70;;
58978;SDS011;44763;50.464;30.612;2023-09-19T10:00:31;2.60;;;1.40;;
58978;SDS011;44763;50.464;30.612;2023-09-19T10:02:43;7.30;;;2.00;;
58978;SDS011;44763;50.464;30.612;2023-09-19T10:04:48;8.90;;;2.80;;
58978;SDS011;44763;50.464;30.612;2023-09-19T10:06:53;2.40;;;1.90;;
58978;SDS011;44763;50.464;30.612;2023-09-19T10:09:02;1.90;;;1.40;;
58978;SDS011;44763;50.464;30.612;2023-09-19T10:11:17;3.90;;;1.40;;
58978;SDS011;44763;50.464;30.612;2023-09-19T10:13:21;5.10;;;1.40;;
58978;SDS011;44763;50.464;30.612;2023-09-19T10:15:26;2.20;;;1.50;;
58978;SDS011;44763;50.464;30.612;2023-09-19T10:17:34;2.00;;;1.60;;
58978;SDS011;44763;50.464;30.612;2023-09-19T10:21:53;1.20;;;1.10;;
58978;SDS011;44763;50.464;30.612;2023-09-19T10:25:55;3.50;;;1.20;;
58978;SDS011;44763;50.464;30.612;2023-09-19T10:28:02;5.20;;;1.60;;
58978;SDS011;44763;50.464;30.612;2023-09-19T10:30:06;4.70;;;1.50;;
58978;SDS011;44763;50.464;30.612;2023-09-19T10:32:10;3.00;;;2.10;;
58978;SDS011;44763;50.464;30.612;2023-09-19T10:34:20;5.20;;;1.40;;
58978;SDS011;44763;50.464;30.612;2023-09-19T10:36:24;3.60;;;1.70;;
58978;SDS011;44763;50.464;30.612;2023-09-19T10:38:28;3.60;;;1.40;;
58978;SDS011;44763;50.464;30.612;2023-09-19T10:40:32;4.70;;;1.80;;
58978;SDS011;44763;50.464;30.612;2023-09-19T10:42:37;2.80;;;1.30;;
58978;SDS011;44763;50.464;30.612;2023-09-19T10:44:40;3.00;;;1.20;;
58978;SDS011;44763;50.464;30.612;2023-09-19T10:46:45;2.10;;;1.00;;
58978;SDS011;44763;50.464;30.612;2023-09-19T10:48:47;1.60;;;1.20;;
58978;SDS011;44763;50.464;30.612;2023-09-19T10:51:08;1.40;;;1.30;;
58978;SDS011;44763;50.464;30.612;2023-09-19T10:53:13;4.40;;;1.60;;
58978;SDS011;44763;50.464;30.612;2023-09-19T10:55:17;5.30;;;1.10;;
58978;SDS011;44763;50.464;30.612;2023-09-19T10:57:21;5.60;;;1.40;;
58978;SDS011;44763;50.464;30.612;2023-09-19T10:59:29;2.40;;;1.30;;
58978;SDS011;44763;50.464;30.612;2023-09-19T11:04:20;3.30;;;1.60;;
58978;SDS011;44763;50.464;30.612;2023-09-19T11:06:24;5.20;;;1.90;;
58978;SDS011;44763;50.464;30.612;2023-09-19T11:08:26;1.40;;;1.30;;
58978;SDS011;44763;50.464;30.612;2023-09-19T11:10:44;4.00;;;2.20;;
58978;SDS011;44763;50.464;30.612;2023-09-19T11:12:48;4.70;;;1.70;;
58978;SDS011;44763;50.464;30.612;2023-09-19T11:14:51;3.30;;;1.90;;
58978;SDS011;44763;50.464;30.612;2023-09-19T11:19:17;1.50;;;1.40;;
58978;SDS011;44763;50.464;30.612;2023-09-19T11:23:35;1.40;;;1.30;;
58978;SDS011;44763;50.464;30.612;2023-09-19T11:28:31;4.60;;;1.50;;
58978;SDS011;44763;50.464;30.612;2023-09-19T11:30:30;3.40;;;1.60;;
58978;SDS011;44763;50.464;30.612;2023-09-19T11:35:11;3.40;;;0.90;;
58978;SDS011;44763;50.464;30.612;2023-09-19T11:39:24;2.20;;;1.20;;
58978;SDS011;44763;50.464;30.612;2023-09-19T11:43:40;3.80;;;1.30;;
58978;SDS011;44763;50.464;30.612;2023-09-19T11:47:48;5.30;;;1.30;;
58978;SDS011;44763;50.464;30.612;2023-09-19T11:49:50;4.20;;;1.70;;
58978;SDS011;44763;50.464;30.612;2023-09-19T11:51:54;3.80;;;2.00;;
58978;SDS011;44763;50.464;30.612;2023-09-19T11:53:57;3.10;;;1.60;;
58978;SDS011;44763;50.464;30.612;2023-09-19T11:56:04;2.50;;;1.90;;
58978;SDS011;44763;50.464;30.612;2023-09-19T11:58:08;2.10;;;1.10;;
58978;SDS011;44763;50.464;30.612;2023-09-19T12:00:17;1.70;;;1.50;;
58978;SDS011;44763;50.464;30.612;2023-09-19T12:02:27;5.90;;;1.60;;
58978;SDS011;44763;50.464;30.612;2023-09-19T12:04:43;5.90;;;1.50;;
58978;SDS011;44763;50.464;30.612;2023-09-19T12:06:54;3.00;;;1.70;;
58978;SDS011;44763;50.464;30.612;2023-09-19T12:08:58;2.00;;;1.40;;
58978;SDS011;44763;50.464;30.612;2023-09-19T12:11:01;5.50;;;1.90;;
58978;SDS011;44763;50.464;30.612;2023-09-19T12:13:03;3.80;;;1.30;;
58978;SDS011;44763;50.464;30.612;2023-09-19T12:15:07;1.80;;;1.30;;
58978;SDS011;44763;50.464;30.612;2023-09-19T12:17:10;5.20;;;1.30;;
58978;SDS011;44763;50.464;30.612;2023-09-19T12:19:17;2.40;;;1.20;;
58978;SDS011;44763;50.464;30.612;2023-09-19T12:21:27;7.40;;;1.10;;
58978;SDS011;44763;50.464;30.612;2023-09-19T12:23:29;3.50;;;1.10;;
58978;SDS011;44763;50.464;30.612;2023-09-19T12:25:41;2.70;;;1.70;;
58978;SDS011;44763;50.464;30.612;2023-09-19T12:27:48;4.30;;;2.00;;
58978;SDS011;44763;50.464;30.612;2023-09-19T12:29:54;2.30;;;1.20;;
58978;SDS011;44763;50.464;30.612;2023-09-19T12:32:10;3.60;;;1.70;;
58978;SDS011;44763;50.464;30.612;2023-09-19T12:34:15;2.20;;;1.30;;
58978;SDS011;44763;50.464;30.612;2023-09-19T12:36:24;4.50;;;1.20;;
58978;SDS011;44763;50.464;30.612;2023-09-19T12:38:32;1.60;;;1.50;;
58978;SDS011;44763;50.464;30.612;2023-09-19T12:40:37;1.70;;;1.40;;
58978;SDS011;44763;50.464;30.612;2023-09-19T12:42:40;4.30;;;1.40;;
58978;SDS011;44763;50.464;30.612;2023-09-19T12:44:43;1.60;;;1.40;;
58978;SDS011;44763;50.464;30.612;2023-09-19T12:46:47;1.50;;;1.20;;
58978;SDS011;44763;50.464;30.612;2023-09-19T12:48:48;1.40;;;1.40;;
58978;SDS011;44763;50.464;30.612;2023-09-19T12:51:14;1.70;;;1.60;;
58978;SDS011;44763;50.464;30.612;2023-09-19T12:53:27;2.20;;;1.10;;
58978;SDS011;44763;50.464;30.612;2023-09-19T12:55:31;4.00;;;1.80;;
58978;SDS011;44763;50.464;30.612;2023-09-19T12:57:38;1.50;;;1.40;;